Akron, OH

2:21 PM EDT on May 03, 2015 (GMT -0400)
Pro-Tech Systems Group | | Change Station
CLOSE
Current Station
Personal Weather Station
Location: Akron, OH
Elevation: 1004 ft
Nearby Weather Stations

Elev 1004 ft 41.03 °N, 81.52 °W | Updated 2 minutes ago

Clear
Clear
76.3 °F
Feels Like 77 °F
N
4.0
Wind Variable Wind from ESE
Gusts 12.0 mph

Today
High -- | Low -- °F
--% Chance of Precip.
Yesterday
High -- | Low -- °F
Precip. -- in
6:21 AM 8:24 PM
Full, 100% visible
Pressure 30.09 in
Visibility 10.0 miles
Clouds Clear
Heat Index 77 °F
Dew Point 43 °F
Humidity 31%
Rainfall 0.00 in
Snow Depth Not available.
UV 10 out of 12
Pollen 11.10 out of 12
Air Quality Not available.
Flu Activity Regional
METAR KAKR 031754Z AUTO 23008KT 190V270 10SM CLR 25/06 A3009 RMK AO2 SLP187 T02500061 10261 20128 58008

More Conditions Fewer Conditions

Pressure 30.09 in
Visibility 10.0 miles
Clouds Clear
Heat Index 77 °F
Dew Point 43 °F
Humidity 31%
Rainfall 0.00 in
Snow Depth Not available.
UV 10 out of 12
Pollen 11.10 out of 12
Air Quality Not available.
Flu Activity Regional
METAR KAKR 031754Z AUTO 23008KT 190V270 10SM CLR 25/06 A3009 RMK AO2 SLP187 T02500061 10261 20128 58008

More Conditions Fewer Conditions

Nepal has a long way to go to dig out and rebuild from a devastating earthquake. We have teamed up with several charities and organizations to make contributing to the relief effort as easy as possible.
How you can help: Portlight Strategies | Red Cross

10-Day Weather Forecast

Almanac

Astronomy

May. 03, 2015 Rise Set
Actual Time
Civil Twilight
Nautical Twilight
Astronomical Twilight
Moon
Length of Visible Light
Length of Day
Tomorrow will be .
, % of the Moon is Illuminated

Today's Extremes

State Highs State Lows

Community

WunderPhotos

Upload Photos

1,818,305 photos uploaded!

WunderBlogs® & News

Nearby

Air Quality

  Air Quality AQ Index Pollutant
Not available.

Snow Depth

Station Depth Elevation

Earthquake Activity

City Distance Mag. Time & Date
Minimum magnitude displayed is 2.5.

Coastal Water Temperatures

Place Temperature

Stations

Nearby Weather Stations

Station Location Temp. Windchill Dew Point Humidity Wind Precip. Elev Updated Type